Aérodrome :
LOGIN :

S'inscrire | Disclaimer

   EN    FR    IT 

 










Légende :    VFR   VFR Marginal   IFR   IFR Intensif   IFR Très Intensif
Visi : 
Plafond : 
>= 8 km
>= 3000ft
5 à 8 km
1000 à 3000 ft
1500m à 5 km
500 à 1000 ft
800 à 1500m
200 à 500 ft
< 800m
< 200 ft
Symboles :   Orages  Brouillard  Fortes neiges  Fortes précipitations  Vent > 20 kt
SIGMETs :   Divers  Orages  Givrage  Turbulence  Onde Orograph.  Cendres Volcan.






- Altitude de l'aérodrome : 220 ft
- Code IATA : CWL


EGFF - Cardiff Rhoose

DERNIER METAR :
  • 151350Z AUTO 06010KT 3100 -DZ BKN004/// OVC010/// //////TCU 15/15 Q1005

METARs EXPIRÉS :
  • 151320Z AUTO 06011KT 6000 -RA BKN005 OVC025 15/14 Q1005 RERA
  • 151250Z AUTO 06012KT 3500 RA BKN004 BKN011 OVC033 14/14 Q1005 RERA
  • 151220Z AUTO 07011KT 2400 RA FEW006 BKN010 OVC037 15/14 Q1006 RERA
  • 151150Z AUTO 07009KT 9999 -RA BKN012 BKN026 OVC041 15/14 Q1006 RESHRA
  • 151120Z 07010KT 6000 SHRA BKN030 BKN038 BKN049 15/14 Q1006
  • 151050Z AUTO 07010KT 9999 SCT033 BKN043 15/14 Q1006
  • 151020Z AUTO 07010KT 9999 -RA NCD 15/13 Q1007
  • 150950Z AUTO 06010KT 9999 -RA SCT035 14/13 Q1007
  • 150920Z AUTO 07008KT 8000 -RA BKN033 14/13 Q1008

TAF AMD TAF EGFF
Valide du 15 à 12h jusqu'au 16 à 12h UTC


151252Z 1512/1612 08010KT 9999 SCT018 BKN040
TEMPO 1512/1524 6000 RA SHRA BKN012
PROB30
TEMPO 1512/1520 3000 +SHRA BKN004 BKN020CB
BECMG 1515/1518 27010KT
BECMG 1600/1603 BKN012
TEMPO 1600/1609 6000 RA -RADZ BKN006
PROB30
TEMPO 1603/1607 3000 BR BKN004
BECMG 1609/1612 SCT010
TEMPO 1609/1612 6000 SHRA
ATIS : +44 1446 729 319



MET'MAP, la Météo Aéronautique d'un coup d'oeil ! - Copyright ORBIFLY Décembre 2007 - Disclaimer

ORBIFLY MET'MAP TEAM :

Programmation & Développement : Alexandra Zaïnal
Sur une idée originale de : Baudouin d'Aumeries
Soutien technique & logistique : Manuel Goepfert
Assistance : Marc-Olivier Méhu




SOURCES & CREDITS :

   NOAA